sensor_id;sensor_type;location;lat;lon;timestamp;temperature;humidity
22676;DHT22;12521;43.310;21.876;2023-08-20T00:03:26;24.0;96.0
22676;DHT22;12521;43.310;21.876;2023-08-20T00:08:06;23.8;96.0
22676;DHT22;12521;43.310;21.876;2023-08-20T00:12:43;23.8;96.0
22676;DHT22;12521;43.310;21.876;2023-08-20T00:17:21;23.7;96.0
22676;DHT22;12521;43.310;21.876;2023-08-20T00:22:01;23.7;96.0
22676;DHT22;12521;43.310;21.876;2023-08-20T00:26:39;23.6;96.0
22676;DHT22;12521;43.310;21.876;2023-08-20T00:31:17;23.6;96.0
22676;DHT22;12521;43.310;21.876;2023-08-20T00:35:54;23.4;96.0
22676;DHT22;12521;43.310;21.876;2023-08-20T00:40:31;23.4;96.0
22676;DHT22;12521;43.310;21.876;2023-08-20T00:45:09;23.2;96.0
22676;DHT22;12521;43.310;21.876;2023-08-20T00:49:47;23.2;96.0
22676;DHT22;12521;43.310;21.876;2023-08-20T00:54:27;23.2;96.0
22676;DHT22;12521;43.310;21.876;2023-08-20T00:59:07;23.2;96.0
22676;DHT22;12521;43.310;21.876;2023-08-20T01:03:46;23.1;96.0
22676;DHT22;12521;43.310;21.876;2023-08-20T01:08:37;23.1;96.0
22676;DHT22;12521;43.310;21.876;2023-08-20T01:13:21;23.1;96.0
22676;DHT22;12521;43.310;21.876;2023-08-20T01:17:58;23.0;96.0
22676;DHT22;12521;43.310;21.876;2023-08-20T01:23:03;23.0;96.0
22676;DHT22;12521;43.310;21.876;2023-08-20T01:28:54;23.0;96.0
22676;DHT22;12521;43.310;21.876;2023-08-20T01:33:34;23.0;96.0
22676;DHT22;12521;43.310;21.876;2023-08-20T01:38:13;23.0;96.0
22676;DHT22;12521;43.310;21.876;2023-08-20T01:42:50;23.0;96.0
22676;DHT22;12521;43.310;21.876;2023-08-20T01:47:26;23.0;96.0
22676;DHT22;12521;43.310;21.876;2023-08-20T01:52:03;23.0;96.0
22676;DHT22;12521;43.310;21.876;2023-08-20T01:56:41;23.0;96.0
22676;DHT22;12521;43.310;21.876;2023-08-20T02:01:17;23.0;96.0
22676;DHT22;12521;43.310;21.876;2023-08-20T02:05:54;22.9;96.0
22676;DHT22;12521;43.310;21.876;2023-08-20T02:10:30;22.9;96.0
22676;DHT22;12521;43.310;21.876;2023-08-20T02:15:09;22.8;96.0
22676;DHT22;12521;43.310;21.876;2023-08-20T02:19:46;22.8;96.0
22676;DHT22;12521;43.310;21.876;2023-08-20T02:24:22;22.6;96.0
22676;DHT22;12521;43.310;21.876;2023-08-20T02:28:59;22.6;96.0
22676;DHT22;12521;43.310;21.876;2023-08-20T02:33:35;22.6;96.0
22676;DHT22;12521;43.310;21.876;2023-08-20T02:38:11;22.6;96.0
22676;DHT22;12521;43.310;21.876;2023-08-20T02:42:48;22.6;96.0
22676;DHT22;12521;43.310;21.876;2023-08-20T02:47:25;22.5;96.0
22676;DHT22;12521;43.310;21.876;2023-08-20T02:52:02;22.5;96.0
22676;DHT22;12521;43.310;21.876;2023-08-20T02:56:40;22.4;96.0
22676;DHT22;12521;43.310;21.876;2023-08-20T03:01:21;22.4;96.0
22676;DHT22;12521;43.310;21.876;2023-08-20T03:06:02;22.4;96.0
22676;DHT22;12521;43.310;21.876;2023-08-20T03:10:39;22.4;96.0
22676;DHT22;12521;43.310;21.876;2023-08-20T03:15:16;22.4;96.0
22676;DHT22;12521;43.310;21.876;2023-08-20T03:19:56;22.4;96.0
22676;DHT22;12521;43.310;21.876;2023-08-20T03:24:36;22.3;96.0
22676;DHT22;12521;43.310;21.876;2023-08-20T03:29:13;22.3;96.0
22676;DHT22;12521;43.310;21.876;2023-08-20T03:33:49;22.2;96.0
22676;DHT22;12521;43.310;21.876;2023-08-20T03:38:26;22.2;96.0
22676;DHT22;12521;43.310;21.876;2023-08-20T03:43:03;22.2;96.0
22676;DHT22;12521;43.310;21.876;2023-08-20T03:47:40;22.1;96.0
22676;DHT22;12521;43.310;21.876;2023-08-20T03:52:17;22.1;96.0
22676;DHT22;12521;43.310;21.876;2023-08-20T03:56:53;22.0;96.0
22676;DHT22;12521;43.310;21.876;2023-08-20T04:01:30;22.0;96.0
22676;DHT22;12521;43.310;21.876;2023-08-20T04:06:08;21.9;96.0
22676;DHT22;12521;43.310;21.876;2023-08-20T04:10:45;21.9;96.0
22676;DHT22;12521;43.310;21.876;2023-08-20T04:15:22;21.8;96.0
22676;DHT22;12521;43.310;21.876;2023-08-20T04:19:59;21.8;96.0
22676;DHT22;12521;43.310;21.876;2023-08-20T04:24:35;21.8;96.0
22676;DHT22;12521;43.310;21.876;2023-08-20T04:29:11;21.8;96.0
22676;DHT22;12521;43.310;21.876;2023-08-20T04:33:48;21.8;96.0
22676;DHT22;12521;43.310;21.876;2023-08-20T04:38:24;21.8;96.0
22676;DHT22;12521;43.310;21.876;2023-08-20T04:43:02;21.8;96.0
22676;DHT22;12521;43.310;21.876;2023-08-20T04:47:39;21.9;96.0
22676;DHT22;12521;43.310;21.876;2023-08-20T04:52:16;21.9;96.0
22676;DHT22;12521;43.310;21.876;2023-08-20T04:56:52;22.0;96.0
22676;DHT22;12521;43.310;21.876;2023-08-20T05:01:28;22.0;96.0
22676;DHT22;12521;43.310;21.876;2023-08-20T05:06:05;22.2;96.0
22676;DHT22;12521;43.310;21.876;2023-08-20T05:10:42;22.2;96.0
22676;DHT22;12521;43.310;21.876;2023-08-20T05:15:18;22.4;96.0
22676;DHT22;12521;43.310;21.876;2023-08-20T05:19:55;22.4;96.0
22676;DHT22;12521;43.310;21.876;2023-08-20T05:24:31;22.5;96.0
22676;DHT22;12521;43.310;21.876;2023-08-20T05:29:08;22.5;96.0
22676;DHT22;12521;43.310;21.876;2023-08-20T05:33:44;22.5;96.0
22676;DHT22;12521;43.310;21.876;2023-08-20T05:38:21;22.6;96.0
22676;DHT22;12521;43.310;21.876;2023-08-20T05:42:58;22.6;96.0
22676;DHT22;12521;43.310;21.876;2023-08-20T05:47:34;22.8;96.0
22676;DHT22;12521;43.310;21.876;2023-08-20T05:52:11;22.8;96.0
22676;DHT22;12521;43.310;21.876;2023-08-20T05:56:47;23.0;96.0
22676;DHT22;12521;43.310;21.876;2023-08-20T06:01:23;23.0;96.0
22676;DHT22;12521;43.310;21.876;2023-08-20T06:06:00;23.2;96.0
22676;DHT22;12521;43.310;21.876;2023-08-20T06:10:37;23.2;96.0
22676;DHT22;12521;43.310;21.876;2023-08-20T06:15:14;23.4;96.0
22676;DHT22;12521;43.310;21.876;2023-08-20T06:19:51;23.4;96.0
22676;DHT22;12521;43.310;21.876;2023-08-20T06:24:27;23.6;96.0
22676;DHT22;12521;43.310;21.876;2023-08-20T06:29:04;23.6;96.0
22676;DHT22;12521;43.310;21.876;2023-08-20T06:33:41;23.6;96.0
22676;DHT22;12521;43.310;21.876;2023-08-20T06:38:17;23.9;96.0
22676;DHT22;12521;43.310;21.876;2023-08-20T06:42:54;23.9;96.0
22676;DHT22;12521;43.310;21.876;2023-08-20T06:47:31;24.2;96.0
22676;DHT22;12521;43.310;21.876;2023-08-20T06:52:08;24.2;96.0
22676;DHT22;12521;43.310;21.876;2023-08-20T06:56:44;24.4;96.0
22676;DHT22;12521;43.310;21.876;2023-08-20T07:01:21;24.4;96.0
22676;DHT22;12521;43.310;21.876;2023-08-20T07:05:58;24.5;96.0
22676;DHT22;12521;43.310;21.876;2023-08-20T07:10:34;24.5;96.0
22676;DHT22;12521;43.310;21.876;2023-08-20T07:15:11;24.8;96.0
22676;DHT22;12521;43.310;21.876;2023-08-20T07:19:48;24.8;96.0
22676;DHT22;12521;43.310;21.876;2023-08-20T07:24:24;25.0;96.0
22676;DHT22;12521;43.310;21.876;2023-08-20T07:29:01;25.0;96.0
22676;DHT22;12521;43.310;21.876;2023-08-20T07:33:37;25.0;96.0
22676;DHT22;12521;43.310;21.876;2023-08-20T07:38:13;25.4;96.0
22676;DHT22;12521;43.310;21.876;2023-08-20T07:42:50;25.4;96.0
22676;DHT22;12521;43.310;21.876;2023-08-20T07:47:27;25.7;96.0
22676;DHT22;12521;43.310;21.876;2023-08-20T07:52:04;25.7;96.0
22676;DHT22;12521;43.310;21.876;2023-08-20T07:56:40;26.0;96.0
22676;DHT22;12521;43.310;21.876;2023-08-20T08:01:17;26.0;96.0
22676;DHT22;12521;43.310;21.876;2023-08-20T08:05:55;26.3;96.0
22676;DHT22;12521;43.310;21.876;2023-08-20T08:10:32;26.3;96.0
22676;DHT22;12521;43.310;21.876;2023-08-20T08:15:09;26.5;96.0
22676;DHT22;12521;43.310;21.876;2023-08-20T08:19:46;26.5;96.0
22676;DHT22;12521;43.310;21.876;2023-08-20T08:24:23;26.7;96.0
22676;DHT22;12521;43.310;21.876;2023-08-20T08:28:59;26.7;96.0
22676;DHT22;12521;43.310;21.876;2023-08-20T08:33:36;26.7;96.0
22676;DHT22;12521;43.310;21.876;2023-08-20T08:38:12;26.9;96.0
22676;DHT22;12521;43.310;21.876;2023-08-20T08:42:49;26.9;96.0
22676;DHT22;12521;43.310;21.876;2023-08-20T08:47:27;27.1;96.0
22676;DHT22;12521;43.310;21.876;2023-08-20T08:52:07;27.1;96.0
22676;DHT22;12521;43.310;21.876;2023-08-20T08:56:47;27.4;96.0
22676;DHT22;12521;43.310;21.876;2023-08-20T09:01:26;27.4;96.0
22676;DHT22;12521;43.310;21.876;2023-08-20T09:06:09;27.7;96.0
22676;DHT22;12521;43.310;21.876;2023-08-20T09:10:50;27.7;96.0
22676;DHT22;12521;43.310;21.876;2023-08-20T09:15:33;28.0;96.0
22676;DHT22;12521;43.310;21.876;2023-08-20T09:20:10;28.0;96.0
22676;DHT22;12521;43.310;21.876;2023-08-20T09:24:55;28.4;96.0
22676;DHT22;12521;43.310;21.876;2023-08-20T09:29:43;28.4;96.0
22676;DHT22;12521;43.310;21.876;2023-08-20T09:34:37;28.6;96.0
22676;DHT22;12521;43.310;21.876;2023-08-20T09:39:14;28.6;96.0
22676;DHT22;12521;43.310;21.876;2023-08-20T09:43:57;28.6;96.0
22676;DHT22;12521;43.310;21.876;2023-08-20T09:48:44;28.7;96.0
22676;DHT22;12521;43.310;21.876;2023-08-20T09:53:38;28.7;96.0
22676;DHT22;12521;43.310;21.876;2023-08-20T09:58:39;29.0;96.0
22676;DHT22;12521;43.310;21.876;2023-08-20T10:03:21;29.0;96.0
22676;DHT22;12521;43.310;21.876;2023-08-20T10:08:01;29.2;96.0
22676;DHT22;12521;43.310;21.876;2023-08-20T10:12:40;29.2;96.0
22676;DHT22;12521;43.310;21.876;2023-08-20T10:17:23;29.6;96.0
22676;DHT22;12521;43.310;21.876;2023-08-20T10:22:02;29.6;96.0
22676;DHT22;12521;43.310;21.876;2023-08-20T10:26:42;30.0;96.0
22676;DHT22;12521;43.310;21.876;2023-08-20T10:31:26;30.0;96.0
22676;DHT22;12521;43.310;21.876;2023-08-20T10:36:15;30.4;95.0
22676;DHT22;12521;43.310;21.876;2023-08-20T10:40:56;30.4;95.0
22676;DHT22;12521;43.310;21.876;2023-08-20T10:45:43;30.9;93.0
22676;DHT22;12521;43.310;21.876;2023-08-20T10:50:20;30.9;93.0
22676;DHT22;12521;43.310;21.876;2023-08-20T10:54:58;31.0;92.0
22676;DHT22;12521;43.310;21.876;2023-08-20T10:59:40;31.0;92.0
22676;DHT22;12521;43.310;21.876;2023-08-20T11:04:20;31.2;91.0
22676;DHT22;12521;43.310;21.876;2023-08-20T11:09:04;31.2;91.0
22676;DHT22;12521;43.310;21.876;2023-08-20T11:13:40;31.2;91.0
22676;DHT22;12521;43.310;21.876;2023-08-20T11:18:17;31.5;90.0
22676;DHT22;12521;43.310;21.876;2023-08-20T11:22:53;31.5;90.0
22676;DHT22;12521;43.310;21.876;2023-08-20T11:27:30;31.8;90.0
22676;DHT22;12521;43.310;21.876;2023-08-20T11:32:06;31.8;90.0
22676;DHT22;12521;43.310;21.876;2023-08-20T11:36:45;32.0;88.0
22676;DHT22;12521;43.310;21.876;2023-08-20T11:41:25;32.0;88.0
22676;DHT22;12521;43.310;21.876;2023-08-20T11:46:02;32.1;87.0
22676;DHT22;12521;43.310;21.876;2023-08-20T11:50:38;32.1;87.0
22676;DHT22;12521;43.310;21.876;2023-08-20T11:55:22;32.0;87.0
22676;DHT22;12521;43.310;21.876;2023-08-20T12:00:05;32.0;87.0
22676;DHT22;12521;43.310;21.876;2023-08-20T12:05:00;31.9;87.0
22676;DHT22;12521;43.310;21.876;2023-08-20T12:09:37;31.9;87.0
22676;DHT22;12521;43.310;21.876;2023-08-20T12:14:14;32.2;86.0
22676;DHT22;12521;43.310;21.876;2023-08-20T12:18:52;32.2;86.0
22676;DHT22;12521;43.310;21.876;2023-08-20T12:23:29;32.2;86.0
22676;DHT22;12521;43.310;21.876;2023-08-20T12:28:06;32.4;85.0
22676;DHT22;12521;43.310;21.876;2023-08-20T12:32:42;32.4;85.0
22676;DHT22;12521;43.310;21.876;2023-08-20T12:37:19;32.2;85.0
22676;DHT22;12521;43.310;21.876;2023-08-20T12:41:55;32.2;85.0
22676;DHT22;12521;43.310;21.876;2023-08-20T12:46:33;32.1;85.0
22676;DHT22;12521;43.310;21.876;2023-08-20T12:51:09;32.1;85.0
22676;DHT22;12521;43.310;21.876;2023-08-20T12:55:46;32.6;83.0
22676;DHT22;12521;43.310;21.876;2023-08-20T13:00:24;32.6;83.0
22676;DHT22;12521;43.310;21.876;2023-08-20T13:05:04;33.1;82.0
22676;DHT22;12521;43.310;21.876;2023-08-20T13:09:46;33.1;82.0
22676;DHT22;12521;43.310;21.876;2023-08-20T13:14:25;33.2;82.0
22676;DHT22;12521;43.310;21.876;2023-08-20T13:19:04;33.2;82.0
22676;DHT22;12521;43.310;21.876;2023-08-20T13:23:44;33.2;82.0
22676;DHT22;12521;43.310;21.876;2023-08-20T13:28:21;33.4;81.0
22676;DHT22;12521;43.310;21.876;2023-08-20T13:32:57;33.4;81.0
22676;DHT22;12521;43.310;21.876;2023-08-20T13:37:34;33.5;81.0
22676;DHT22;12521;43.310;21.876;2023-08-20T13:42:11;33.5;81.0
22676;DHT22;12521;43.310;21.876;2023-08-20T13:46:47;33.6;81.0
22676;DHT22;12521;43.310;21.876;2023-08-20T13:51:24;33.6;81.0
22676;DHT22;12521;43.310;21.876;2023-08-20T13:56:00;33.7;80.0
22676;DHT22;12521;43.310;21.876;2023-08-20T14:00:37;33.7;80.0
22676;DHT22;12521;43.310;21.876;2023-08-20T14:05:14;33.8;79.0
22676;DHT22;12521;43.310;21.876;2023-08-20T14:09:50;33.8;79.0
22676;DHT22;12521;43.310;21.876;2023-08-20T14:14:26;33.6;79.0
22676;DHT22;12521;43.310;21.876;2023-08-20T14:19:03;33.6;79.0
22676;DHT22;12521;43.310;21.876;2023-08-20T14:23:40;33.6;79.0
22676;DHT22;12521;43.310;21.876;2023-08-20T14:28:16;33.5;79.0
22676;DHT22;12521;43.310;21.876;2023-08-20T14:32:53;33.5;79.0
22676;DHT22;12521;43.310;21.876;2023-08-20T14:37:30;33.5;79.0
22676;DHT22;12521;43.310;21.876;2023-08-20T14:42:06;33.5;79.0
22676;DHT22;12521;43.310;21.876;2023-08-20T14:46:43;33.5;80.0
22676;DHT22;12521;43.310;21.876;2023-08-20T14:51:20;33.5;80.0
22676;DHT22;12521;43.310;21.876;2023-08-20T14:55:57;33.6;80.0
22676;DHT22;12521;43.310;21.876;2023-08-20T15:00:34;33.6;80.0
22676;DHT22;12521;43.310;21.876;2023-08-20T15:05:13;33.6;80.0
22676;DHT22;12521;43.310;21.876;2023-08-20T15:09:50;33.6;80.0
22676;DHT22;12521;43.310;21.876;2023-08-20T15:14:26;33.6;80.0
22676;DHT22;12521;43.310;21.876;2023-08-20T15:19:03;33.6;80.0
22676;DHT22;12521;43.310;21.876;2023-08-20T15:23:40;33.6;80.0
22676;DHT22;12521;43.310;21.876;2023-08-20T15:28:16;33.6;80.0
22676;DHT22;12521;43.310;21.876;2023-08-20T15:32:53;33.6;80.0
22676;DHT22;12521;43.310;21.876;2023-08-20T15:37:29;33.4;80.0
22676;DHT22;12521;43.310;21.876;2023-08-20T15:42:06;33.4;80.0
22676;DHT22;12521;43.310;21.876;2023-08-20T15:46:42;33.2;81.0
22676;DHT22;12521;43.310;21.876;2023-08-20T15:51:19;33.2;81.0
22676;DHT22;12521;43.310;21.876;2023-08-20T15:55:55;33.2;81.0
22676;DHT22;12521;43.310;21.876;2023-08-20T16:00:32;33.2;81.0
22676;DHT22;12521;43.310;21.876;2023-08-20T16:05:09;33.2;80.0
22676;DHT22;12521;43.310;21.876;2023-08-20T16:09:46;33.2;80.0
22676;DHT22;12521;43.310;21.876;2023-08-20T16:14:23;33.8;79.0
22676;DHT22;12521;43.310;21.876;2023-08-20T16:19:00;33.8;79.0
22676;DHT22;12521;43.310;21.876;2023-08-20T16:23:37;33.8;79.0
22676;DHT22;12521;43.310;21.876;2023-08-20T16:28:14;34.4;78.0
22676;DHT22;12521;43.310;21.876;2023-08-20T16:32:50;34.4;78.0
22676;DHT22;12521;43.310;21.876;2023-08-20T16:37:26;34.0;78.0
22676;DHT22;12521;43.310;21.876;2023-08-20T16:42:03;34.0;78.0
22676;DHT22;12521;43.310;21.876;2023-08-20T16:46:40;33.7;77.0
22676;DHT22;12521;43.310;21.876;2023-08-20T16:51:16;33.7;77.0
22676;DHT22;12521;43.310;21.876;2023-08-20T16:55:53;32.7;79.0
22676;DHT22;12521;43.310;21.876;2023-08-20T17:00:31;32.7;79.0
22676;DHT22;12521;43.310;21.876;2023-08-20T17:05:08;31.7;81.0
22676;DHT22;12521;43.310;21.876;2023-08-20T17:09:45;31.7;81.0
22676;DHT22;12521;43.310;21.876;2023-08-20T17:14:22;31.7;81.0
22676;DHT22;12521;43.310;21.876;2023-08-20T17:19:00;31.2;83.0
22676;DHT22;12521;43.310;21.876;2023-08-20T17:23:36;31.2;83.0
22676;DHT22;12521;43.310;21.876;2023-08-20T17:28:13;30.7;86.0
22676;DHT22;12521;43.310;21.876;2023-08-20T17:32:51;30.7;86.0
22676;DHT22;12521;43.310;21.876;2023-08-20T17:37:27;30.3;87.0
22676;DHT22;12521;43.310;21.876;2023-08-20T17:42:04;30.3;87.0
22676;DHT22;12521;43.310;21.876;2023-08-20T17:46:42;29.9;89.0
22676;DHT22;12521;43.310;21.876;2023-08-20T17:51:23;29.9;89.0
22676;DHT22;12521;43.310;21.876;2023-08-20T17:55:59;29.6;90.0
22676;DHT22;12521;43.310;21.876;2023-08-20T18:00:36;29.6;90.0
22676;DHT22;12521;43.310;21.876;2023-08-20T18:05:12;29.4;91.0
22676;DHT22;12521;43.310;21.876;2023-08-20T18:09:49;29.4;91.0
22676;DHT22;12521;43.310;21.876;2023-08-20T18:14:25;29.4;91.0
22676;DHT22;12521;43.310;21.876;2023-08-20T18:19:02;29.2;92.0
22676;DHT22;12521;43.310;21.876;2023-08-20T18:23:39;29.2;92.0
22676;DHT22;12521;43.310;21.876;2023-08-20T18:28:16;29.0;94.0
22676;DHT22;12521;43.310;21.876;2023-08-20T18:32:52;29.0;94.0
22676;DHT22;12521;43.310;21.876;2023-08-20T18:37:29;28.8;95.0
22676;DHT22;12521;43.310;21.876;2023-08-20T18:42:07;28.8;95.0
22676;DHT22;12521;43.310;21.876;2023-08-20T18:46:44;28.5;96.0
22676;DHT22;12521;43.310;21.876;2023-08-20T18:51:22;28.5;96.0
22676;DHT22;12521;43.310;21.876;2023-08-20T18:56:02;28.3;96.0
22676;DHT22;12521;43.310;21.876;2023-08-20T19:00:39;28.3;96.0
22676;DHT22;12521;43.310;21.876;2023-08-20T19:05:16;28.1;96.0
22676;DHT22;12521;43.310;21.876;2023-08-20T19:09:53;28.1;96.0
22676;DHT22;12521;43.310;21.876;2023-08-20T19:14:30;28.0;96.0
22676;DHT22;12521;43.310;21.876;2023-08-20T19:19:06;28.0;96.0
22676;DHT22;12521;43.310;21.876;2023-08-20T19:23:42;28.0;96.0
22676;DHT22;12521;43.310;21.876;2023-08-20T19:28:19;27.8;96.0
22676;DHT22;12521;43.310;21.876;2023-08-20T19:32:56;27.8;96.0
22676;DHT22;12521;43.310;21.876;2023-08-20T19:37:32;27.6;96.0
22676;DHT22;12521;43.310;21.876;2023-08-20T19:42:09;27.6;96.0
22676;DHT22;12521;43.310;21.876;2023-08-20T19:46:46;27.4;96.0
22676;DHT22;12521;43.310;21.876;2023-08-20T19:51:23;27.4;96.0
22676;DHT22;12521;43.310;21.876;2023-08-20T19:55:59;27.1;96.0
22676;DHT22;12521;43.310;21.876;2023-08-20T20:00:36;27.1;96.0
22676;DHT22;12521;43.310;21.876;2023-08-20T20:05:13;26.8;96.0
22676;DHT22;12521;43.310;21.876;2023-08-20T20:09:50;26.8;96.0
22676;DHT22;12521;43.310;21.876;2023-08-20T20:14:27;26.8;96.0
22676;DHT22;12521;43.310;21.876;2023-08-20T20:19:03;26.4;96.0
22676;DHT22;12521;43.310;21.876;2023-08-20T20:23:40;26.4;96.0
22676;DHT22;12521;43.310;21.876;2023-08-20T20:28:17;26.1;96.0
22676;DHT22;12521;43.310;21.876;2023-08-20T20:32:53;26.1;96.0
22676;DHT22;12521;43.310;21.876;2023-08-20T20:37:34;25.8;96.0
22676;DHT22;12521;43.310;21.876;2023-08-20T20:42:10;25.8;96.0
22676;DHT22;12521;43.310;21.876;2023-08-20T20:46:47;25.5;96.0
22676;DHT22;12521;43.310;21.876;2023-08-20T20:51:23;25.5;96.0
22676;DHT22;12521;43.310;21.876;2023-08-20T20:56:00;25.4;96.0
22676;DHT22;12521;43.310;21.876;2023-08-20T21:00:36;25.4;96.0
22676;DHT22;12521;43.310;21.876;2023-08-20T21:05:13;25.2;96.0
22676;DHT22;12521;43.310;21.876;2023-08-20T21:09:51;25.2;96.0
22676;DHT22;12521;43.310;21.876;2023-08-20T21:14:27;25.2;96.0
22676;DHT22;12521;43.310;21.876;2023-08-20T21:19:04;25.2;96.0
22676;DHT22;12521;43.310;21.876;2023-08-20T21:23:41;25.2;96.0
22676;DHT22;12521;43.310;21.876;2023-08-20T21:28:18;25.1;96.0
22676;DHT22;12521;43.310;21.876;2023-08-20T21:32:55;25.1;96.0
22676;DHT22;12521;43.310;21.876;2023-08-20T21:37:31;25.2;96.0
22676;DHT22;12521;43.310;21.876;2023-08-20T21:42:08;25.2;96.0
22676;DHT22;12521;43.310;21.876;2023-08-20T21:46:45;25.2;96.0
22676;DHT22;12521;43.310;21.876;2023-08-20T21:51:22;25.2;96.0
22676;DHT22;12521;43.310;21.876;2023-08-20T21:55:58;25.0;96.0
22676;DHT22;12521;43.310;21.876;2023-08-20T22:00:35;25.0;96.0
22676;DHT22;12521;43.310;21.876;2023-08-20T22:05:14;24.9;96.0
22676;DHT22;12521;43.310;21.876;2023-08-20T22:09:56;24.9;96.0
22676;DHT22;12521;43.310;21.876;2023-08-20T22:14:33;24.9;96.0
22676;DHT22;12521;43.310;21.876;2023-08-20T22:19:10;24.6;96.0
22676;DHT22;12521;43.310;21.876;2023-08-20T22:23:47;24.6;96.0
22676;DHT22;12521;43.310;21.876;2023-08-20T22:28:25;24.3;96.0
22676;DHT22;12521;43.310;21.876;2023-08-20T22:33:01;24.3;96.0
22676;DHT22;12521;43.310;21.876;2023-08-20T22:37:39;24.1;96.0
22676;DHT22;12521;43.310;21.876;2023-08-20T22:42:16;24.1;96.0
22676;DHT22;12521;43.310;21.876;2023-08-20T22:46:54;23.9;96.0
22676;DHT22;12521;43.310;21.876;2023-08-20T22:51:30;23.9;96.0
22676;DHT22;12521;43.310;21.876;2023-08-20T22:56:07;23.8;96.0
22676;DHT22;12521;43.310;21.876;2023-08-20T23:00:44;23.8;96.0
22676;DHT22;12521;43.310;21.876;2023-08-20T23:05:23;23.8;96.0
22676;DHT22;12521;43.310;21.876;2023-08-20T23:10:00;23.8;96.0
22676;DHT22;12521;43.310;21.876;2023-08-20T23:14:36;23.8;96.0
22676;DHT22;12521;43.310;21.876;2023-08-20T23:19:13;23.6;96.0
22676;DHT22;12521;43.310;21.876;2023-08-20T23:23:49;23.6;96.0
22676;DHT22;12521;43.310;21.876;2023-08-20T23:28:26;23.3;96.0
22676;DHT22;12521;43.310;21.876;2023-08-20T23:33:03;23.3;96.0
22676;DHT22;12521;43.310;21.876;2023-08-20T23:37:40;23.3;96.0
22676;DHT22;12521;43.310;21.876;2023-08-20T23:42:17;23.3;96.0
22676;DHT22;12521;43.310;21.876;2023-08-20T23:46:53;23.3;96.0
22676;DHT22;12521;43.310;21.876;2023-08-20T23:51:30;23.3;96.0
22676;DHT22;12521;43.310;21.876;2023-08-20T23:56:06;23.2;96.0
